createdAt,value
2019-05-29T13:34:34.891Z,18.80
2019-05-29T13:35:40.520Z,19.62
2019-05-29T13:36:45.589Z,19.24
2019-05-29T13:37:50.896Z,19.40
2019-05-29T13:38:56.223Z,19.07
2019-05-29T13:40:05.026Z,20.48
2019-05-29T13:41:07.977Z,19.72
2019-05-29T13:42:12.918Z,19.51
2019-05-29T13:43:17.553Z,19.72
2019-05-29T13:44:23.127Z,19.10
2019-05-29T13:45:28.133Z,19.47
2019-05-29T13:46:33.973Z,19.15
2019-05-29T13:47:39.379Z,19.47
2019-05-29T13:48:45.105Z,19.92
2019-05-29T13:49:50.386Z,19.21
2019-05-29T13:50:57.020Z,19.49
2019-05-29T13:52:07.816Z,19.24
2019-05-29T13:53:09.522Z,19.68
2019-05-29T13:54:17.951Z,20.71
2019-05-29T13:55:24.000Z,20.43
2019-05-29T13:56:28.991Z,21.29
2019-05-29T13:57:34.834Z,20.35
2019-05-29T13:58:39.834Z,19.61
2019-05-29T13:59:46.100Z,20.45
2019-05-29T14:00:51.618Z,20.76
2019-05-29T14:01:58.399Z,20.70
2019-05-29T14:03:04.614Z,21.26
2019-05-29T14:04:10.029Z,21.24
2019-05-29T14:05:16.684Z,21.25
2019-05-29T14:06:22.284Z,20.98
2019-05-29T14:07:27.063Z,20.83
2019-05-29T14:08:32.644Z,21.54
2019-05-29T14:09:37.924Z,21.67
2019-05-29T14:10:43.722Z,20.73
2019-05-29T14:11:48.984Z,20.52
2019-05-29T14:12:55.145Z,20.75
2019-05-29T14:14:01.183Z,21.13
2019-05-29T14:15:08.299Z,20.83
2019-05-29T14:16:13.335Z,20.44
2019-05-29T14:17:18.676Z,20.23
2019-05-29T14:18:24.397Z,20.49
2019-05-29T14:19:30.000Z,21.08
2019-05-29T14:20:34.971Z,21.00
2019-05-29T14:21:40.355Z,21.29
2019-05-29T14:22:45.715Z,21.00
2019-05-29T14:23:51.491Z,20.96
2019-05-29T14:24:56.891Z,20.62
2019-05-29T14:26:06.340Z,21.10
2019-05-29T14:27:12.694Z,21.11
2019-05-29T14:28:18.213Z,21.22
2019-05-29T14:29:26.477Z,21.75
2019-05-29T14:30:31.750Z,22.66
2019-05-29T14:31:36.804Z,22.24
2019-05-29T14:32:42.074Z,22.65
2019-05-29T14:33:47.007Z,22.51
2019-05-29T14:34:52.310Z,21.56
2019-05-29T14:35:57.305Z,21.12
2019-05-29T14:37:04.507Z,20.94
2019-05-29T14:38:15.027Z,21.80
2019-05-29T14:39:20.241Z,21.36
2019-05-29T14:40:25.907Z,22.00
2019-05-29T14:41:31.469Z,21.45
2019-05-29T14:42:36.155Z,21.28
2019-05-29T14:43:41.710Z,21.71
2019-05-29T14:44:46.719Z,21.85
2019-05-29T14:45:52.618Z,23.31
2019-05-29T14:46:57.302Z,22.17
2019-05-29T14:48:03.976Z,22.47
2019-05-29T14:49:08.780Z,22.79
2019-05-29T14:50:14.762Z,22.11
2019-05-29T14:51:20.037Z,22.05
2019-05-29T14:52:25.963Z,22.45
2019-05-29T14:53:31.302Z,22.09
2019-05-29T14:54:41.798Z,22.31
2019-05-29T14:55:42.821Z,22.09
2019-05-29T14:56:48.522Z,22.72
2019-05-29T14:57:53.511Z,23.05
2019-05-29T14:58:59.312Z,22.31
2019-05-29T15:00:13.463Z,22.37
2019-05-29T15:01:11.266Z,22.09
2019-05-29T15:02:23.085Z,22.76
2019-05-29T15:03:23.350Z,23.22
2019-05-29T15:04:28.311Z,22.58
2019-05-29T15:05:33.596Z,22.96
2019-05-29T15:06:38.547Z,22.47
2019-05-29T15:07:44.380Z,22.90
2019-05-29T15:08:49.141Z,22.14
2019-05-29T15:09:54.770Z,22.55
2019-05-29T15:10:59.503Z,22.08
2019-05-29T15:12:05.908Z,21.96
2019-05-29T15:13:11.064Z,22.38
2019-05-29T15:14:17.957Z,22.32
2019-05-29T15:15:23.076Z,23.48
2019-05-29T15:16:28.392Z,23.10
2019-05-29T15:17:33.671Z,22.66
2019-05-29T15:18:39.245Z,22.97
2019-05-29T15:19:44.495Z,22.51
2019-05-29T15:20:50.466Z,22.53
2019-05-29T15:21:55.250Z,22.61
2019-05-29T15:23:01.160Z,22.88
2019-05-29T15:24:07.305Z,22.72
2019-05-29T15:25:21.022Z,23.59
2019-05-29T15:26:19.134Z,23.76
2019-05-29T15:27:24.781Z,23.06
2019-05-29T15:28:30.134Z,21.94
2019-05-29T15:29:35.785Z,22.35
2019-05-29T15:30:40.503Z,22.72
2019-05-29T15:31:45.618Z,22.77
2019-05-29T15:32:50.744Z,23.05
2019-05-29T15:33:56.526Z,22.61
2019-05-29T15:35:01.852Z,22.60
2019-05-29T15:36:07.051Z,22.97
2019-05-29T15:37:13.908Z,22.95
2019-05-29T15:38:19.174Z,22.94
2019-05-29T15:39:23.863Z,22.45
2019-05-29T15:40:29.136Z,22.21
2019-05-29T15:41:34.419Z,22.65
2019-05-29T15:42:39.749Z,22.22
2019-05-29T15:43:44.541Z,22.19
2019-05-29T15:44:50.647Z,22.76
2019-05-29T15:45:55.736Z,23.22
2019-05-29T15:47:01.397Z,22.87
2019-05-29T15:48:07.011Z,21.87
2019-05-29T15:49:13.894Z,21.89
2019-05-29T15:50:20.625Z,23.03
2019-05-29T15:51:26.840Z,22.06
2019-05-29T15:52:32.093Z,22.02
2019-05-29T15:53:37.720Z,22.30
2019-05-29T15:54:42.686Z,21.82
2019-05-29T15:55:47.988Z,21.99
2019-05-29T15:56:52.725Z,22.12
2019-05-29T15:57:58.588Z,21.39
2019-05-29T15:59:03.796Z,21.54
2019-05-29T16:00:11.342Z,21.73
2019-05-29T16:01:17.857Z,21.50
2019-05-29T16:02:23.841Z,21.63
2019-05-29T16:03:28.586Z,22.07
2019-05-29T16:04:35.084Z,21.54
2019-05-29T16:05:40.375Z,21.29
2019-05-29T16:06:45.771Z,21.46
2019-05-29T16:07:51.115Z,21.77
2019-05-29T16:08:56.692Z,22.11
2019-05-29T16:10:01.425Z,21.75
2019-05-29T16:11:08.569Z,21.79
2019-05-29T16:12:14.641Z,21.54
2019-05-29T16:13:23.816Z,22.25
2019-05-29T16:14:28.511Z,22.38
2019-05-29T16:15:33.781Z,22.79
2019-05-29T16:16:38.559Z,22.69
2019-05-29T16:17:44.531Z,22.81
2019-05-29T16:18:49.784Z,22.50
2019-05-29T16:19:54.861Z,23.60
2019-05-29T16:20:59.924Z,23.15
2019-05-29T16:22:05.479Z,22.91
2019-05-29T16:23:10.934Z,23.58
2019-05-29T16:24:16.822Z,23.26
2019-05-29T16:25:38.855Z,23.68
2019-05-29T16:26:29.150Z,23.60
2019-05-29T16:27:34.155Z,23.52
2019-05-29T16:28:39.791Z,23.89
2019-05-29T16:29:44.501Z,23.70
2019-05-29T16:30:49.775Z,23.67
2019-05-29T16:31:54.681Z,24.22
2019-05-29T16:33:00.239Z,23.81
2019-05-29T16:34:05.015Z,24.23
2019-05-29T16:35:11.160Z,24.30
2019-05-29T16:36:16.601Z,23.66
2019-05-29T16:37:22.512Z,23.78
2019-05-29T16:38:27.492Z,23.59
2019-05-29T16:39:33.069Z,23.71
2019-05-29T16:40:38.308Z,23.76
2019-05-29T16:41:43.880Z,23.91
2019-05-29T16:42:48.565Z,23.66
2019-05-29T16:43:54.092Z,23.79
2019-05-29T16:44:59.033Z,24.00
2019-05-29T16:46:04.294Z,23.60
2019-05-29T16:47:09.314Z,23.68
2019-05-29T16:48:14.665Z,23.69
2019-05-29T16:49:21.275Z,24.15
2019-05-29T16:50:26.939Z,23.62
2019-05-29T16:51:31.591Z,23.79
2019-05-29T16:52:37.501Z,23.73
2019-05-29T16:53:42.216Z,24.00
2019-05-29T16:54:48.098Z,23.63
2019-05-29T16:55:54.632Z,23.47
2019-05-29T16:57:00.544Z,23.70
2019-05-29T16:58:05.352Z,23.89
2019-05-29T16:59:10.964Z,24.00
2019-05-29T17:00:17.620Z,23.86
2019-05-29T17:01:23.967Z,24.17
2019-05-29T17:02:28.818Z,24.56
2019-05-29T17:03:34.422Z,24.77
2019-05-29T17:04:39.150Z,25.11
2019-05-29T17:05:44.226Z,24.52
2019-05-29T17:06:49.180Z,24.33
2019-05-29T17:07:54.999Z,24.41
2019-05-29T17:08:59.727Z,24.97
2019-05-29T17:10:06.462Z,25.11
2019-05-29T17:11:11.296Z,25.24
2019-05-29T17:12:18.168Z,25.61
2019-05-29T17:13:24.672Z,25.14
2019-05-29T17:14:30.124Z,24.92
2019-05-29T17:15:34.553Z,24.88
2019-05-29T17:16:40.151Z,25.29
2019-05-29T17:17:44.865Z,25.01
2019-05-29T17:18:51.742Z,24.36
2019-05-29T17:19:56.233Z,24.14
2019-05-29T17:21:01.499Z,24.34
2019-05-29T17:22:06.330Z,24.49
2019-05-29T17:23:12.096Z,24.58
2019-05-29T17:24:17.074Z,24.78
2019-05-29T17:25:25.672Z,24.70
2019-05-29T17:26:29.338Z,24.88
2019-05-29T17:27:34.933Z,25.21
2019-05-29T17:28:39.902Z,25.02
2019-05-29T17:29:45.752Z,24.51
2019-05-29T17:30:50.996Z,24.81
2019-05-29T17:31:56.415Z,24.74
2019-05-29T17:33:01.200Z,24.78
2019-05-29T17:34:06.477Z,24.74
2019-05-29T17:35:11.596Z,24.81
2019-05-29T17:36:16.915Z,24.63
2019-05-29T17:37:23.130Z,24.50
2019-05-29T17:38:28.554Z,24.45
2019-05-29T17:39:33.299Z,24.85
2019-05-29T17:40:38.599Z,24.92
2019-05-29T17:41:43.573Z,24.77
2019-05-29T17:42:48.896Z,24.40
2019-05-29T17:43:53.895Z,24.28
2019-05-29T17:44:59.735Z,24.86
2019-05-29T17:46:04.408Z,24.62
2019-05-29T17:47:09.661Z,24.80
2019-05-29T17:48:15.461Z,24.82
2019-05-29T17:49:30.321Z,24.64
2019-05-29T17:50:27.500Z,24.54
2019-05-29T17:51:33.067Z,24.89
2019-05-29T17:52:38.128Z,24.86
2019-05-29T17:53:43.939Z,24.92
2019-05-29T17:54:48.922Z,24.75
2019-05-29T17:55:54.243Z,25.04
2019-05-29T17:56:59.184Z,25.30
2019-05-29T17:58:04.433Z,25.52
2019-05-29T17:59:09.138Z,25.36
2019-05-29T18:00:17.917Z,25.39
2019-05-29T18:01:24.031Z,25.50
2019-05-29T18:02:30.072Z,25.27
2019-05-29T18:03:34.754Z,25.16
2019-05-29T18:04:40.329Z,25.58
2019-05-29T18:05:45.593Z,25.84
2019-05-29T18:06:51.136Z,25.83
2019-05-29T18:08:59.755Z,26.11
2019-05-29T18:10:04.942Z,25.69
2019-05-29T18:11:10.300Z,25.94
2019-05-29T18:12:15.225Z,25.75
2019-05-29T18:13:21.344Z,25.63
2019-05-29T18:14:26.116Z,25.41
2019-05-29T18:15:31.765Z,25.50
2019-05-29T18:16:36.651Z,26.07
2019-05-29T18:17:44.268Z,25.98
2019-05-29T18:18:48.907Z,25.99
2019-05-29T18:19:53.975Z,25.90
2019-05-29T18:20:59.131Z,26.18
2019-05-29T18:22:04.345Z,26.86
2019-05-29T18:23:08.982Z,26.76
2019-05-29T18:24:14.646Z,26.45
2019-05-29T18:25:21.801Z,26.31
2019-05-29T18:26:42.636Z,26.35
2019-05-29T18:27:33.819Z,26.37
2019-05-29T18:28:39.465Z,26.11
2019-05-29T18:29:44.697Z,26.51
2019-05-29T18:30:50.345Z,26.19
2019-05-29T18:31:55.227Z,26.02
2019-05-29T18:33:00.356Z,26.19
2019-05-29T18:34:05.246Z,26.02
2019-05-29T18:35:10.991Z,26.41
2019-05-29T18:36:16.120Z,26.30
2019-05-29T18:37:22.038Z,26.43
2019-05-29T18:38:28.741Z,26.41
2019-05-29T18:39:35.050Z,26.72
2019-05-29T18:40:40.291Z,26.66
2019-05-29T18:41:45.909Z,26.56
2019-05-29T18:42:50.887Z,26.71
2019-05-29T18:43:56.229Z,26.85
2019-05-29T18:45:00.898Z,27.09
2019-05-29T18:46:05.920Z,27.48
2019-05-29T18:47:10.796Z,28.09
2019-05-29T18:48:15.902Z,27.51
2019-05-29T18:49:22.156Z,27.57
2019-05-29T18:50:27.651Z,27.76
2019-05-29T18:51:32.929Z,27.91
2019-05-29T18:52:37.988Z,28.24
2019-05-29T18:53:42.998Z,28.68
2019-05-29T18:54:48.702Z,29.11
2019-05-29T18:55:53.868Z,29.02
2019-05-29T18:57:14.704Z,29.60
2019-05-29T18:58:05.925Z,30.35
2019-05-29T18:59:11.311Z,30.23
2019-05-29T19:00:17.185Z,30.21
2019-05-29T19:01:23.456Z,30.31
2019-05-29T19:02:29.576Z,30.53
2019-05-29T19:03:34.688Z,30.51
2019-05-29T19:04:39.915Z,30.48
2019-05-29T19:05:45.370Z,30.09
2019-05-29T19:06:50.562Z,30.17
2019-05-29T19:07:55.644Z,30.89
2019-05-29T19:09:00.542Z,31.19
2019-05-29T19:10:07.036Z,31.51
2019-05-29T19:11:11.939Z,31.41
2019-05-29T19:12:17.587Z,31.72
2019-05-29T19:13:23.775Z,31.52
2019-05-29T19:14:29.950Z,31.19
2019-05-29T19:15:34.595Z,31.18
2019-05-29T19:16:39.814Z,31.17
2019-05-29T19:17:44.680Z,31.01
2019-05-29T19:18:50.370Z,31.81
2019-05-29T19:19:55.922Z,32.32
2019-05-29T19:21:01.254Z,32.20
2019-05-29T19:22:06.395Z,32.21
2019-05-29T19:23:11.748Z,32.38
2019-05-29T19:24:16.510Z,32.40
2019-05-29T19:25:22.748Z,32.50
2019-05-29T19:26:28.788Z,33.07
2019-05-29T19:27:41.677Z,32.97
2019-05-29T19:28:41.607Z,32.83
2019-05-29T19:29:46.700Z,32.81
2019-05-29T19:30:52.024Z,33.29
2019-05-29T19:31:57.131Z,33.44
2019-05-29T19:33:02.000Z,33.54
2019-05-29T19:34:06.836Z,33.53
2019-05-29T19:35:12.007Z,33.58
2019-05-29T19:36:17.069Z,34.15
2019-05-29T19:37:22.222Z,34.33
2019-05-29T19:38:27.834Z,34.12
2019-05-29T19:39:34.189Z,34.25
2019-05-29T19:40:40.161Z,34.56
2019-05-29T19:41:45.597Z,34.24
2019-05-29T19:42:54.340Z,34.20
2019-05-29T19:43:57.872Z,34.50
2019-05-29T19:45:02.945Z,35.10
2019-05-29T19:46:08.384Z,35.18
2019-05-29T19:47:14.012Z,35.02
2019-05-29T19:48:18.885Z,34.83
2019-05-29T19:49:25.594Z,34.87
2019-05-29T19:50:31.147Z,34.89
2019-05-29T19:51:36.258Z,34.86
2019-05-29T19:52:41.459Z,34.85
2019-05-29T19:53:46.286Z,34.91
2019-05-29T19:54:51.466Z,35.12
2019-05-29T19:55:56.852Z,35.45
2019-05-29T19:57:02.118Z,35.88
2019-05-29T19:58:07.320Z,35.92
2019-05-29T19:59:12.662Z,35.86
2019-05-29T20:00:19.882Z,35.91
2019-05-29T20:01:31.708Z,36.42
2019-05-29T20:02:32.649Z,36.78
2019-05-29T20:03:38.144Z,36.89
2019-05-29T20:04:43.235Z,36.69
2019-05-29T20:05:48.410Z,36.55
2019-05-29T20:06:53.232Z,36.52
2019-05-29T20:07:58.402Z,36.73
2019-05-29T20:09:03.848Z,36.78
2019-05-29T20:10:10.633Z,36.96
2019-05-29T20:11:16.013Z,36.91
2019-05-29T20:12:21.170Z,36.99
2019-05-29T20:13:26.039Z,37.06
2019-05-29T20:14:31.771Z,36.72
2019-05-29T20:15:38.033Z,36.69
2019-05-29T20:16:43.482Z,37.25
2019-05-29T20:17:48.755Z,37.55
2019-05-29T20:18:54.174Z,37.29
2019-05-29T20:19:59.562Z,37.27
2019-05-29T20:21:04.482Z,36.98
2019-05-29T20:22:09.599Z,36.64
2019-05-29T20:23:14.814Z,36.74
2019-05-29T20:24:19.961Z,36.47
2019-05-29T20:25:25.385Z,36.91
2019-05-29T20:26:30.953Z,36.93
2019-05-29T20:27:36.500Z,37.21
2019-05-29T20:28:42.579Z,36.78
2019-05-29T20:29:47.900Z,36.77
2019-05-29T20:30:53.604Z,36.65
2019-05-29T20:31:58.900Z,36.51
2019-05-29T20:33:04.265Z,36.20
2019-05-29T20:34:09.133Z,36.50
2019-05-29T20:35:14.266Z,36.46
2019-05-29T20:36:19.439Z,37.07
2019-05-29T20:37:25.418Z,37.88
2019-05-29T20:38:30.970Z,37.63
2019-05-29T20:39:38.348Z,37.93
2019-05-29T20:40:43.660Z,38.00
2019-05-29T20:41:49.073Z,38.37
2019-05-29T20:42:54.364Z,39.36
2019-05-29T20:43:59.507Z,39.18
2019-05-29T20:45:04.719Z,38.68
2019-05-29T20:46:09.782Z,37.92
2019-05-29T20:47:14.482Z,38.04
2019-05-29T20:48:20.109Z,37.85
2019-05-29T20:49:25.345Z,37.84
2019-05-29T20:50:30.992Z,38.15
2019-05-29T20:51:36.229Z,38.75
2019-05-29T20:52:41.498Z,38.73
2019-05-29T20:53:46.406Z,38.13
2019-05-29T20:54:51.768Z,37.68
2019-05-29T20:55:56.664Z,36.78
2019-05-29T20:57:11.607Z,36.16
2019-05-29T20:58:24.484Z,36.67
2019-05-29T20:59:23.190Z,36.83
2019-05-29T21:00:28.368Z,36.88
2019-05-29T21:01:42.970Z,37.25
2019-05-29T21:02:40.572Z,37.04
2019-05-29T21:03:45.743Z,37.16
2019-05-29T21:04:51.285Z,37.75
2019-05-29T21:05:56.384Z,38.05
2019-05-29T21:07:01.304Z,38.11
2019-05-29T21:08:06.964Z,38.24
2019-05-29T21:09:11.864Z,37.99
2019-05-29T21:10:17.074Z,37.93
2019-05-29T21:11:22.261Z,38.54
2019-05-29T21:12:27.325Z,38.55
2019-05-29T21:13:33.317Z,38.97
2019-05-29T21:14:39.661Z,39.15
2019-05-29T21:15:44.793Z,38.92
2019-05-29T21:16:50.344Z,39.48
2019-05-29T21:17:55.277Z,39.51
2019-05-29T21:19:00.396Z,40.14
2019-05-29T21:20:05.910Z,40.35
2019-05-29T21:21:10.948Z,40.93
2019-05-29T21:22:16.440Z,40.28
2019-05-29T21:23:21.268Z,40.91
2019-05-29T21:24:26.742Z,41.18
2019-05-29T21:25:32.199Z,40.41
2019-05-29T21:26:37.423Z,41.66
2019-05-29T21:27:46.670Z,41.22
2019-05-29T21:28:50.800Z,40.78
2019-05-29T21:29:56.350Z,40.91
2019-05-29T21:31:01.315Z,40.47
2019-05-29T21:32:06.402Z,40.29
2019-05-29T21:33:11.579Z,40.22
2019-05-29T21:34:17.178Z,40.12
2019-05-29T21:35:22.423Z,40.65
2019-05-29T21:36:27.903Z,40.35
2019-05-29T21:37:33.061Z,41.16
2019-05-29T21:38:38.687Z,41.45
2019-05-29T21:39:44.522Z,41.47
2019-05-29T21:40:50.286Z,42.15
2019-05-29T21:41:55.717Z,42.58
2019-05-29T21:43:01.332Z,43.30
2019-05-29T21:44:06.243Z,42.58
2019-05-29T21:45:11.475Z,41.91
2019-05-29T21:46:17.035Z,42.36
2019-05-29T21:47:22.412Z,41.70
2019-05-29T21:48:27.295Z,41.38
2019-05-29T21:49:33.105Z,41.02
2019-05-29T21:50:38.819Z,41.32
2019-05-29T21:51:45.783Z,41.52
2019-05-29T21:52:51.048Z,41.91
2019-05-29T21:53:56.398Z,41.83
2019-05-29T21:55:01.597Z,41.82
2019-05-29T21:56:06.415Z,43.13
2019-05-29T21:57:11.578Z,42.78
2019-05-29T21:58:16.847Z,43.74
2019-05-29T21:59:22.244Z,42.91
2019-05-29T22:00:36.034Z,42.38
2019-05-29T22:01:42.058Z,42.14
2019-05-29T22:02:48.549Z,42.00
2019-05-29T22:03:53.909Z,42.19
2019-05-29T22:04:59.298Z,42.11
2019-05-29T22:06:03.990Z,41.67
2019-05-29T22:07:09.051Z,41.61
2019-05-29T22:08:13.941Z,41.27
2019-05-29T22:09:18.804Z,41.69
2019-05-29T22:10:26.177Z,42.27
2019-05-29T22:11:31.135Z,42.33
2019-05-29T22:12:36.038Z,42.15
2019-05-29T22:13:41.429Z,42.63
2019-05-29T22:14:46.387Z,42.68
2019-05-29T22:15:52.542Z,42.56
2019-05-29T22:16:59.119Z,43.42
2019-05-29T22:18:04.307Z,43.40
2019-05-29T22:19:09.238Z,43.20
2019-05-29T22:20:15.011Z,43.23
2019-05-29T22:21:20.187Z,43.58
2019-05-29T22:22:25.258Z,43.49
2019-05-29T22:23:30.419Z,43.97
2019-05-29T22:24:36.057Z,43.78
2019-05-29T22:25:41.532Z,44.19
2019-05-29T22:26:46.871Z,43.18
2019-05-29T22:27:53.340Z,43.09
2019-05-29T22:29:15.696Z,43.34
2019-05-29T22:30:07.070Z,43.41
2019-05-29T22:31:12.678Z,43.49
2019-05-29T22:32:17.895Z,43.29
2019-05-29T22:33:23.240Z,43.51
2019-05-29T22:34:28.680Z,43.39
2019-05-29T22:35:34.046Z,43.16
2019-05-29T22:36:39.526Z,42.87
2019-05-29T22:37:45.195Z,43.15
2019-05-29T22:38:51.381Z,44.01
2019-05-29T22:39:57.652Z,44.09
2019-05-29T22:41:03.168Z,44.40
2019-05-29T22:42:08.230Z,44.12
2019-05-29T22:43:13.676Z,44.80
2019-05-29T22:44:19.143Z,45.10
2019-05-29T22:45:24.610Z,44.35
2019-05-29T22:46:30.264Z,44.39
2019-05-29T22:47:35.424Z,44.36
2019-05-29T22:48:40.788Z,44.74
2019-05-29T22:49:46.626Z,45.18
2019-05-29T22:50:51.711Z,44.74
2019-05-29T22:51:57.823Z,44.99
2019-05-29T22:53:02.946Z,44.71
2019-05-29T22:54:07.815Z,44.50
2019-05-29T22:55:12.850Z,44.58
2019-05-29T22:56:17.994Z,44.79
2019-05-29T22:57:23.626Z,45.01
2019-05-29T22:58:28.852Z,44.81
2019-05-29T22:59:34.278Z,44.61
2019-05-29T23:00:39.682Z,44.46
2019-05-29T23:01:45.144Z,44.41
2019-05-29T23:02:51.832Z,44.34
2019-05-29T23:03:58.218Z,43.76
2019-05-29T23:05:03.746Z,44.20
2019-05-29T23:06:09.098Z,44.03
2019-05-29T23:07:14.410Z,44.04
2019-05-29T23:08:19.524Z,44.08
2019-05-29T23:09:24.693Z,43.69
2019-05-29T23:10:30.009Z,43.73
2019-05-29T23:11:35.267Z,45.06
2019-05-29T23:12:40.355Z,44.80
2019-05-29T23:13:45.241Z,44.54
2019-05-29T23:14:50.318Z,44.72
2019-05-29T23:15:56.616Z,44.96
2019-05-29T23:17:02.691Z,44.57
2019-05-29T23:18:07.806Z,44.51
2019-05-29T23:19:12.643Z,44.13
2019-05-29T23:20:18.243Z,44.15
2019-05-29T23:21:24.472Z,44.67
2019-05-29T23:22:29.353Z,44.46
2019-05-29T23:23:34.456Z,44.26
2019-05-29T23:24:39.912Z,44.29
2019-05-29T23:25:45.538Z,44.36
2019-05-29T23:26:50.968Z,44.49
2019-05-29T23:27:56.948Z,44.83
2019-05-29T23:29:03.530Z,44.62
2019-05-29T23:30:08.880Z,44.33
2019-05-29T23:31:14.049Z,44.24
2019-05-29T23:32:19.960Z,44.44
2019-05-29T23:33:25.423Z,44.92
2019-05-29T23:34:30.548Z,44.52
2019-05-29T23:35:35.992Z,45.44
2019-05-29T23:36:41.614Z,45.08
2019-05-29T23:37:46.944Z,45.02
2019-05-29T23:38:53.170Z,45.49
2019-05-29T23:39:57.890Z,45.22
2019-05-29T23:41:03.759Z,45.22
2019-05-29T23:42:09.173Z,45.05
2019-05-29T23:43:14.532Z,44.67
2019-05-29T23:44:19.712Z,45.25
2019-05-29T23:45:25.344Z,45.63
2019-05-29T23:46:30.576Z,45.43
2019-05-29T23:47:36.299Z,44.99
2019-05-29T23:48:41.756Z,45.32
2019-05-29T23:49:47.827Z,45.48
2019-05-29T23:50:53.422Z,45.17
2019-05-29T23:51:59.704Z,45.57
2019-05-29T23:53:05.316Z,45.86
2019-05-29T23:54:10.371Z,44.97
2019-05-29T23:55:15.550Z,45.56
2019-05-29T23:56:21.015Z,45.98
2019-05-29T23:57:25.889Z,45.40
2019-05-29T23:58:31.237Z,44.91
2019-05-29T23:59:36.249Z,45.09
